sensor_id;sensor_type;location;lat;lon;timestamp;temperature;humidity
22436;DHT22;11385;50.822;4.324;2024-03-02T00:00:19;7.00;99.90
22436;DHT22;11385;50.822;4.324;2024-03-02T00:02:48;7.00;99.90
22436;DHT22;11385;50.822;4.324;2024-03-02T00:05:19;7.00;99.90
22436;DHT22;11385;50.822;4.324;2024-03-02T00:07:54;7.00;99.90
22436;DHT22;11385;50.822;4.324;2024-03-02T00:10:25;6.90;99.90
22436;DHT22;11385;50.822;4.324;2024-03-02T00:12:54;6.80;99.90
22436;DHT22;11385;50.822;4.324;2024-03-02T00:17:56;7.00;99.90
22436;DHT22;11385;50.822;4.324;2024-03-02T00:20:25;6.90;99.90
22436;DHT22;11385;50.822;4.324;2024-03-02T00:23:03;6.80;99.90
22436;DHT22;11385;50.822;4.324;2024-03-02T00:25:54;6.70;99.90
22436;DHT22;11385;50.822;4.324;2024-03-02T00:28:27;6.70;99.90
22436;DHT22;11385;50.822;4.324;2024-03-02T00:30:58;6.70;99.90
22436;DHT22;11385;50.822;4.324;2024-03-02T00:33:30;6.80;99.90
22436;DHT22;11385;50.822;4.324;2024-03-02T00:35:57;6.80;99.90
22436;DHT22;11385;50.822;4.324;2024-03-02T00:38:27;6.90;99.90
22436;DHT22;11385;50.822;4.324;2024-03-02T00:40:54;7.00;99.90
22436;DHT22;11385;50.822;4.324;2024-03-02T00:46:01;6.90;99.90
22436;DHT22;11385;50.822;4.324;2024-03-02T00:48:27;6.90;99.90
22436;DHT22;11385;50.822;4.324;2024-03-02T00:50:57;6.90;99.90
22436;DHT22;11385;50.822;4.324;2024-03-02T00:53:26;7.00;99.90
22436;DHT22;11385;50.822;4.324;2024-03-02T00:55:53;7.00;99.90
22436;DHT22;11385;50.822;4.324;2024-03-02T00:58:19;6.90;99.90
22436;DHT22;11385;50.822;4.324;2024-03-02T01:00:47;7.00;99.90
22436;DHT22;11385;50.822;4.324;2024-03-02T01:03:14;7.10;99.90
22436;DHT22;11385;50.822;4.324;2024-03-02T01:05:42;6.80;99.90
22436;DHT22;11385;50.822;4.324;2024-03-02T01:08:10;6.80;99.90
22436;DHT22;11385;50.822;4.324;2024-03-02T01:10:36;6.90;99.90
22436;DHT22;11385;50.822;4.324;2024-03-02T01:13:03;6.80;99.90
22436;DHT22;11385;50.822;4.324;2024-03-02T01:15:30;6.90;99.90
22436;DHT22;11385;50.822;4.324;2024-03-02T01:17:56;6.90;99.90
22436;DHT22;11385;50.822;4.324;2024-03-02T01:20:23;7.00;99.90
22436;DHT22;11385;50.822;4.324;2024-03-02T01:22:50;7.00;99.90
22436;DHT22;11385;50.822;4.324;2024-03-02T01:25:18;6.90;99.90
22436;DHT22;11385;50.822;4.324;2024-03-02T01:27:44;7.00;99.90
22436;DHT22;11385;50.822;4.324;2024-03-02T01:30:11;7.20;99.90
22436;DHT22;11385;50.822;4.324;2024-03-02T01:32:38;7.10;99.90
22436;DHT22;11385;50.822;4.324;2024-03-02T01:35:05;7.20;99.90
22436;DHT22;11385;50.822;4.324;2024-03-02T01:37:33;7.10;99.90
22436;DHT22;11385;50.822;4.324;2024-03-02T01:40:00;7.10;99.90
22436;DHT22;11385;50.822;4.324;2024-03-02T01:42:28;7.20;99.90
22436;DHT22;11385;50.822;4.324;2024-03-02T01:44:56;7.10;99.90
22436;DHT22;11385;50.822;4.324;2024-03-02T01:47:23;7.20;99.90
22436;DHT22;11385;50.822;4.324;2024-03-02T01:49:49;7.20;99.90
22436;DHT22;11385;50.822;4.324;2024-03-02T01:52:16;7.00;99.90
22436;DHT22;11385;50.822;4.324;2024-03-02T01:54:43;7.10;99.90
22436;DHT22;11385;50.822;4.324;2024-03-02T01:57:11;7.10;99.90
22436;DHT22;11385;50.822;4.324;2024-03-02T01:59:38;7.20;99.90
22436;DHT22;11385;50.822;4.324;2024-03-02T02:02:05;7.20;99.90
22436;DHT22;11385;50.822;4.324;2024-03-02T02:04:31;7.20;99.90
22436;DHT22;11385;50.822;4.324;2024-03-02T02:06:59;7.30;99.90
22436;DHT22;11385;50.822;4.324;2024-03-02T02:09:26;7.40;99.90
22436;DHT22;11385;50.822;4.324;2024-03-02T02:11:52;7.20;99.90
22436;DHT22;11385;50.822;4.324;2024-03-02T02:14:20;7.20;99.90
22436;DHT22;11385;50.822;4.324;2024-03-02T02:16:46;7.20;99.90
22436;DHT22;11385;50.822;4.324;2024-03-02T02:19:13;7.30;99.90
22436;DHT22;11385;50.822;4.324;2024-03-02T02:21:42;7.30;99.90
22436;DHT22;11385;50.822;4.324;2024-03-02T02:24:09;7.30;99.90
22436;DHT22;11385;50.822;4.324;2024-03-02T02:26:35;7.30;99.90
22436;DHT22;11385;50.822;4.324;2024-03-02T02:29:02;7.30;99.90
22436;DHT22;11385;50.822;4.324;2024-03-02T02:34:03;7.40;99.90
22436;DHT22;11385;50.822;4.324;2024-03-02T02:36:31;7.30;99.90
22436;DHT22;11385;50.822;4.324;2024-03-02T02:39:02;7.30;99.90
22436;DHT22;11385;50.822;4.324;2024-03-02T02:41:29;7.20;99.90
22436;DHT22;11385;50.822;4.324;2024-03-02T02:43:56;7.20;99.90
22436;DHT22;11385;50.822;4.324;2024-03-02T02:46:23;7.20;99.90
22436;DHT22;11385;50.822;4.324;2024-03-02T02:48:49;7.20;99.90
22436;DHT22;11385;50.822;4.324;2024-03-02T02:51:18;7.20;99.90
22436;DHT22;11385;50.822;4.324;2024-03-02T02:53:45;7.30;99.90
22436;DHT22;11385;50.822;4.324;2024-03-02T02:56:12;7.20;99.90
22436;DHT22;11385;50.822;4.324;2024-03-02T02:58:40;7.20;99.90
22436;DHT22;11385;50.822;4.324;2024-03-02T03:01:08;7.30;99.90
22436;DHT22;11385;50.822;4.324;2024-03-02T03:03:35;7.20;99.90
22436;DHT22;11385;50.822;4.324;2024-03-02T03:06:01;7.20;99.90
22436;DHT22;11385;50.822;4.324;2024-03-02T03:08:28;7.20;99.90
22436;DHT22;11385;50.822;4.324;2024-03-02T03:10:55;7.20;99.90
22436;DHT22;11385;50.822;4.324;2024-03-02T03:13:21;7.20;99.90
22436;DHT22;11385;50.822;4.324;2024-03-02T03:15:48;7.20;99.90
22436;DHT22;11385;50.822;4.324;2024-03-02T03:18:15;7.30;99.90
22436;DHT22;11385;50.822;4.324;2024-03-02T03:20:42;7.20;99.90
22436;DHT22;11385;50.822;4.324;2024-03-02T03:23:08;7.10;99.90
22436;DHT22;11385;50.822;4.324;2024-03-02T03:25:35;7.00;99.90
22436;DHT22;11385;50.822;4.324;2024-03-02T03:28:01;6.90;99.90
22436;DHT22;11385;50.822;4.324;2024-03-02T03:30:29;7.00;99.90
22436;DHT22;11385;50.822;4.324;2024-03-02T03:32:55;6.90;99.90
22436;DHT22;11385;50.822;4.324;2024-03-02T03:35:22;6.90;99.90
22436;DHT22;11385;50.822;4.324;2024-03-02T03:37:49;6.90;99.90
22436;DHT22;11385;50.822;4.324;2024-03-02T03:40:15;7.10;99.90
22436;DHT22;11385;50.822;4.324;2024-03-02T03:42:42;7.10;99.90
22436;DHT22;11385;50.822;4.324;2024-03-02T03:45:10;7.30;99.90
22436;DHT22;11385;50.822;4.324;2024-03-02T03:47:37;7.40;99.90
22436;DHT22;11385;50.822;4.324;2024-03-02T03:50:03;7.30;99.90
22436;DHT22;11385;50.822;4.324;2024-03-02T03:52:32;7.40;99.90
22436;DHT22;11385;50.822;4.324;2024-03-02T03:54:59;7.40;99.90
22436;DHT22;11385;50.822;4.324;2024-03-02T03:57:27;7.50;99.90
22436;DHT22;11385;50.822;4.324;2024-03-02T03:59:53;7.50;99.90
22436;DHT22;11385;50.822;4.324;2024-03-02T04:02:20;7.40;99.90
22436;DHT22;11385;50.822;4.324;2024-03-02T04:04:46;7.40;99.90
22436;DHT22;11385;50.822;4.324;2024-03-02T04:07:13;7.40;99.90
22436;DHT22;11385;50.822;4.324;2024-03-02T04:09:40;7.30;99.90
22436;DHT22;11385;50.822;4.324;2024-03-02T04:12:06;7.30;99.90
22436;DHT22;11385;50.822;4.324;2024-03-02T04:14:33;7.30;99.90
22436;DHT22;11385;50.822;4.324;2024-03-02T04:17:00;7.40;99.90
22436;DHT22;11385;50.822;4.324;2024-03-02T04:19:27;7.40;99.90
22436;DHT22;11385;50.822;4.324;2024-03-02T04:21:53;7.30;99.90
22436;DHT22;11385;50.822;4.324;2024-03-02T04:24:20;7.40;99.90
22436;DHT22;11385;50.822;4.324;2024-03-02T04:26:46;7.30;99.90
22436;DHT22;11385;50.822;4.324;2024-03-02T04:29:13;7.30;99.90
22436;DHT22;11385;50.822;4.324;2024-03-02T04:31:40;7.20;99.90
22436;DHT22;11385;50.822;4.324;2024-03-02T04:34:06;7.20;99.90
22436;DHT22;11385;50.822;4.324;2024-03-02T04:36:33;7.30;99.90
22436;DHT22;11385;50.822;4.324;2024-03-02T04:38:59;7.20;99.90
22436;DHT22;11385;50.822;4.324;2024-03-02T04:41:27;7.10;99.90
22436;DHT22;11385;50.822;4.324;2024-03-02T04:43:53;7.10;99.90
22436;DHT22;11385;50.822;4.324;2024-03-02T04:46:20;7.00;99.90
22436;DHT22;11385;50.822;4.324;2024-03-02T04:48:47;6.90;99.90
22436;DHT22;11385;50.822;4.324;2024-03-02T04:51:14;7.10;99.90
22436;DHT22;11385;50.822;4.324;2024-03-02T04:53:41;6.90;99.90
22436;DHT22;11385;50.822;4.324;2024-03-02T04:56:08;6.90;99.90
22436;DHT22;11385;50.822;4.324;2024-03-02T04:58:38;6.90;99.90
22436;DHT22;11385;50.822;4.324;2024-03-02T05:01:05;6.90;99.90
22436;DHT22;11385;50.822;4.324;2024-03-02T05:03:32;6.70;99.90
22436;DHT22;11385;50.822;4.324;2024-03-02T05:06:00;6.60;99.90
22436;DHT22;11385;50.822;4.324;2024-03-02T05:08:27;6.60;99.90
22436;DHT22;11385;50.822;4.324;2024-03-02T05:10:53;6.50;99.90
22436;DHT22;11385;50.822;4.324;2024-03-02T05:13:20;6.50;99.90
22436;DHT22;11385;50.822;4.324;2024-03-02T05:15:47;6.50;99.90
22436;DHT22;11385;50.822;4.324;2024-03-02T05:18:13;6.50;99.90
22436;DHT22;11385;50.822;4.324;2024-03-02T05:20:40;6.50;99.90
22436;DHT22;11385;50.822;4.324;2024-03-02T05:23:06;6.50;99.90
22436;DHT22;11385;50.822;4.324;2024-03-02T05:25:33;6.40;99.90
22436;DHT22;11385;50.822;4.324;2024-03-02T05:28:01;6.50;99.90
22436;DHT22;11385;50.822;4.324;2024-03-02T05:30:27;6.40;99.90
22436;DHT22;11385;50.822;4.324;2024-03-02T05:32:54;6.50;99.90
22436;DHT22;11385;50.822;4.324;2024-03-02T05:35:21;6.50;99.90
22436;DHT22;11385;50.822;4.324;2024-03-02T05:37:47;6.40;99.90
22436;DHT22;11385;50.822;4.324;2024-03-02T05:40:14;6.40;99.90
22436;DHT22;11385;50.822;4.324;2024-03-02T05:42:41;6.40;99.90
22436;DHT22;11385;50.822;4.324;2024-03-02T05:45:08;6.30;99.90
22436;DHT22;11385;50.822;4.324;2024-03-02T05:47:35;6.30;99.90
22436;DHT22;11385;50.822;4.324;2024-03-02T05:50:02;6.20;99.90
22436;DHT22;11385;50.822;4.324;2024-03-02T05:52:29;6.30;99.90
22436;DHT22;11385;50.822;4.324;2024-03-02T05:54:56;6.30;99.90
22436;DHT22;11385;50.822;4.324;2024-03-02T05:57:23;6.30;99.90
22436;DHT22;11385;50.822;4.324;2024-03-02T05:59:51;6.30;99.90
22436;DHT22;11385;50.822;4.324;2024-03-02T06:02:18;6.30;99.90
22436;DHT22;11385;50.822;4.324;2024-03-02T06:04:44;6.30;99.90
22436;DHT22;11385;50.822;4.324;2024-03-02T06:07:11;6.30;99.90
22436;DHT22;11385;50.822;4.324;2024-03-02T06:09:38;6.30;99.90
22436;DHT22;11385;50.822;4.324;2024-03-02T06:12:05;6.20;99.90
22436;DHT22;11385;50.822;4.324;2024-03-02T06:14:31;6.10;99.90
22436;DHT22;11385;50.822;4.324;2024-03-02T06:16:59;6.20;99.90
22436;DHT22;11385;50.822;4.324;2024-03-02T06:19:25;6.10;99.90
22436;DHT22;11385;50.822;4.324;2024-03-02T06:21:53;6.20;99.90
22436;DHT22;11385;50.822;4.324;2024-03-02T06:24:20;6.20;99.90
22436;DHT22;11385;50.822;4.324;2024-03-02T06:26:46;6.10;99.90
22436;DHT22;11385;50.822;4.324;2024-03-02T06:29:13;6.10;99.90
22436;DHT22;11385;50.822;4.324;2024-03-02T06:31:40;6.10;99.90
22436;DHT22;11385;50.822;4.324;2024-03-02T06:34:07;6.10;99.90
22436;DHT22;11385;50.822;4.324;2024-03-02T06:36:35;6.20;99.90
22436;DHT22;11385;50.822;4.324;2024-03-02T06:39:01;6.10;99.90
22436;DHT22;11385;50.822;4.324;2024-03-02T06:41:28;6.10;99.90
22436;DHT22;11385;50.822;4.324;2024-03-02T06:43:55;6.20;99.90
22436;DHT22;11385;50.822;4.324;2024-03-02T06:46:23;6.20;99.90
22436;DHT22;11385;50.822;4.324;2024-03-02T06:48:50;6.30;99.90
22436;DHT22;11385;50.822;4.324;2024-03-02T06:51:16;6.20;99.90
22436;DHT22;11385;50.822;4.324;2024-03-02T06:53:43;6.20;99.90
22436;DHT22;11385;50.822;4.324;2024-03-02T06:56:10;6.10;99.90
22436;DHT22;11385;50.822;4.324;2024-03-02T06:58:37;6.10;99.90
22436;DHT22;11385;50.822;4.324;2024-03-02T07:01:03;6.20;99.90
22436;DHT22;11385;50.822;4.324;2024-03-02T07:03:30;6.20;99.90
22436;DHT22;11385;50.822;4.324;2024-03-02T07:05:58;6.30;99.90
22436;DHT22;11385;50.822;4.324;2024-03-02T07:08:25;6.30;99.90
22436;DHT22;11385;50.822;4.324;2024-03-02T07:10:52;6.30;99.90
22436;DHT22;11385;50.822;4.324;2024-03-02T07:13:18;6.30;99.90
22436;DHT22;11385;50.822;4.324;2024-03-02T07:15:46;6.20;99.90
22436;DHT22;11385;50.822;4.324;2024-03-02T07:18:18;6.40;99.90
22436;DHT22;11385;50.822;4.324;2024-03-02T07:20:45;6.40;99.90
22436;DHT22;11385;50.822;4.324;2024-03-02T07:23:11;6.30;99.90
22436;DHT22;11385;50.822;4.324;2024-03-02T07:25:38;6.40;99.90
22436;DHT22;11385;50.822;4.324;2024-03-02T07:28:05;6.30;99.90
22436;DHT22;11385;50.822;4.324;2024-03-02T07:30:33;6.30;99.90
22436;DHT22;11385;50.822;4.324;2024-03-02T07:33:00;6.40;99.90
22436;DHT22;11385;50.822;4.324;2024-03-02T07:35:26;6.40;99.90
22436;DHT22;11385;50.822;4.324;2024-03-02T07:37:54;6.40;99.90
22436;DHT22;11385;50.822;4.324;2024-03-02T07:40:21;6.40;99.90
22436;DHT22;11385;50.822;4.324;2024-03-02T07:42:48;6.40;99.90
22436;DHT22;11385;50.822;4.324;2024-03-02T07:45:14;6.50;99.90
22436;DHT22;11385;50.822;4.324;2024-03-02T07:47:41;6.40;99.90
22436;DHT22;11385;50.822;4.324;2024-03-02T07:50:08;6.50;99.90
22436;DHT22;11385;50.822;4.324;2024-03-02T07:52:35;6.60;99.90
22436;DHT22;11385;50.822;4.324;2024-03-02T07:55:01;6.60;99.90
22436;DHT22;11385;50.822;4.324;2024-03-02T07:57:28;6.70;99.90
22436;DHT22;11385;50.822;4.324;2024-03-02T07:59:55;6.60;99.90
22436;DHT22;11385;50.822;4.324;2024-03-02T08:02:21;6.60;99.90
22436;DHT22;11385;50.822;4.324;2024-03-02T08:04:48;6.70;99.90
22436;DHT22;11385;50.822;4.324;2024-03-02T08:07:16;6.80;99.90
22436;DHT22;11385;50.822;4.324;2024-03-02T08:09:43;6.80;99.90
22436;DHT22;11385;50.822;4.324;2024-03-02T08:12:09;6.80;99.90
22436;DHT22;11385;50.822;4.324;2024-03-02T08:14:36;7.00;99.90
22436;DHT22;11385;50.822;4.324;2024-03-02T08:17:03;7.00;99.90
22436;DHT22;11385;50.822;4.324;2024-03-02T08:19:31;7.10;99.90
22436;DHT22;11385;50.822;4.324;2024-03-02T08:21:58;7.10;99.90
22436;DHT22;11385;50.822;4.324;2024-03-02T08:24:25;7.10;99.90
22436;DHT22;11385;50.822;4.324;2024-03-02T08:26:52;7.20;99.90
22436;DHT22;11385;50.822;4.324;2024-03-02T08:29:18;7.30;99.90
22436;DHT22;11385;50.822;4.324;2024-03-02T08:31:45;7.30;99.90
22436;DHT22;11385;50.822;4.324;2024-03-02T08:34:11;7.50;99.90
22436;DHT22;11385;50.822;4.324;2024-03-02T08:36:40;7.50;99.90
22436;DHT22;11385;50.822;4.324;2024-03-02T08:39:08;7.60;99.90
22436;DHT22;11385;50.822;4.324;2024-03-02T08:41:38;7.60;99.90
22436;DHT22;11385;50.822;4.324;2024-03-02T08:44:05;7.70;99.90
22436;DHT22;11385;50.822;4.324;2024-03-02T08:46:32;7.70;99.90
22436;DHT22;11385;50.822;4.324;2024-03-02T08:48:59;7.80;99.90
22436;DHT22;11385;50.822;4.324;2024-03-02T08:51:26;7.90;99.90
22436;DHT22;11385;50.822;4.324;2024-03-02T08:53:53;8.00;99.90
22436;DHT22;11385;50.822;4.324;2024-03-02T08:56:19;8.10;99.90
22436;DHT22;11385;50.822;4.324;2024-03-02T08:58:47;8.20;99.90
22436;DHT22;11385;50.822;4.324;2024-03-02T09:01:14;8.30;99.90
22436;DHT22;11385;50.822;4.324;2024-03-02T09:03:41;8.40;99.90
22436;DHT22;11385;50.822;4.324;2024-03-02T09:06:12;8.50;99.90
22436;DHT22;11385;50.822;4.324;2024-03-02T09:08:39;8.50;99.90
22436;DHT22;11385;50.822;4.324;2024-03-02T09:11:06;8.60;99.90
22436;DHT22;11385;50.822;4.324;2024-03-02T09:13:33;8.60;99.90
22436;DHT22;11385;50.822;4.324;2024-03-02T09:16:02;8.50;99.90
22436;DHT22;11385;50.822;4.324;2024-03-02T09:18:30;8.60;99.90
22436;DHT22;11385;50.822;4.324;2024-03-02T09:20:56;8.70;99.90
22436;DHT22;11385;50.822;4.324;2024-03-02T09:23:23;8.70;99.90
22436;DHT22;11385;50.822;4.324;2024-03-02T09:25:50;8.70;99.90
22436;DHT22;11385;50.822;4.324;2024-03-02T09:28:16;8.90;99.90
22436;DHT22;11385;50.822;4.324;2024-03-02T09:30:43;9.00;99.90
22436;DHT22;11385;50.822;4.324;2024-03-02T09:33:09;9.00;99.90
22436;DHT22;11385;50.822;4.324;2024-03-02T09:35:36;9.20;99.90
22436;DHT22;11385;50.822;4.324;2024-03-02T09:38:03;9.20;99.90
22436;DHT22;11385;50.822;4.324;2024-03-02T09:40:30;9.50;99.90
22436;DHT22;11385;50.822;4.324;2024-03-02T09:42:57;9.40;99.90
22436;DHT22;11385;50.822;4.324;2024-03-02T09:45:26;9.40;99.90
22436;DHT22;11385;50.822;4.324;2024-03-02T09:47:53;9.50;99.90
22436;DHT22;11385;50.822;4.324;2024-03-02T09:50:19;9.80;99.90
22436;DHT22;11385;50.822;4.324;2024-03-02T09:52:49;9.80;99.90
22436;DHT22;11385;50.822;4.324;2024-03-02T09:55:16;10.00;99.90
22436;DHT22;11385;50.822;4.324;2024-03-02T09:57:46;9.90;99.90
22436;DHT22;11385;50.822;4.324;2024-03-02T10:00:14;9.80;99.90
22436;DHT22;11385;50.822;4.324;2024-03-02T10:02:42;9.90;99.90
22436;DHT22;11385;50.822;4.324;2024-03-02T10:05:10;10.00;99.90
22436;DHT22;11385;50.822;4.324;2024-03-02T10:07:38;10.10;99.90
22436;DHT22;11385;50.822;4.324;2024-03-02T10:10:14;10.20;99.90
22436;DHT22;11385;50.822;4.324;2024-03-02T10:12:42;10.30;99.90
22436;DHT22;11385;50.822;4.324;2024-03-02T10:15:08;10.70;99.90
22436;DHT22;11385;50.822;4.324;2024-03-02T10:17:35;10.60;99.90
22436;DHT22;11385;50.822;4.324;2024-03-02T10:20:24;10.90;99.90
22436;DHT22;11385;50.822;4.324;2024-03-02T10:22:51;11.20;99.90
22436;DHT22;11385;50.822;4.324;2024-03-02T10:25:33;11.30;99.90
22436;DHT22;11385;50.822;4.324;2024-03-02T10:28:00;11.30;99.90
22436;DHT22;11385;50.822;4.324;2024-03-02T10:30:27;11.30;99.90
22436;DHT22;11385;50.822;4.324;2024-03-02T10:32:55;11.20;99.90
22436;DHT22;11385;50.822;4.324;2024-03-02T10:35:23;11.20;99.90
22436;DHT22;11385;50.822;4.324;2024-03-02T10:37:50;11.30;99.90
22436;DHT22;11385;50.822;4.324;2024-03-02T10:40:18;11.40;99.90
22436;DHT22;11385;50.822;4.324;2024-03-02T10:42:47;11.30;99.90
22436;DHT22;11385;50.822;4.324;2024-03-02T10:45:16;11.50;99.90
22436;DHT22;11385;50.822;4.324;2024-03-02T10:47:43;11.60;99.90
22436;DHT22;11385;50.822;4.324;2024-03-02T10:50:11;11.60;99.90
22436;DHT22;11385;50.822;4.324;2024-03-02T10:52:39;11.70;99.90
22436;DHT22;11385;50.822;4.324;2024-03-02T10:55:06;11.90;99.90
22436;DHT22;11385;50.822;4.324;2024-03-02T10:57:50;11.80;99.90
22436;DHT22;11385;50.822;4.324;2024-03-02T11:00:13;11.90;99.90
22436;DHT22;11385;50.822;4.324;2024-03-02T11:02:46;11.90;99.90
22436;DHT22;11385;50.822;4.324;2024-03-02T11:05:18;11.90;99.90
22436;DHT22;11385;50.822;4.324;2024-03-02T11:07:45;11.60;99.90
22436;DHT22;11385;50.822;4.324;2024-03-02T11:10:12;11.90;99.90
22436;DHT22;11385;50.822;4.324;2024-03-02T11:12:46;12.00;99.90
22436;DHT22;11385;50.822;4.324;2024-03-02T11:15:11;12.00;99.90
22436;DHT22;11385;50.822;4.324;2024-03-02T11:17:40;12.00;99.90
22436;DHT22;11385;50.822;4.324;2024-03-02T11:20:08;12.10;99.90
22436;DHT22;11385;50.822;4.324;2024-03-02T11:22:36;12.40;99.90
22436;DHT22;11385;50.822;4.324;2024-03-02T11:25:05;12.50;99.90
22436;DHT22;11385;50.822;4.324;2024-03-02T11:30:48;12.40;99.90
22436;DHT22;11385;50.822;4.324;2024-03-02T11:33:22;12.60;99.90
22436;DHT22;11385;50.822;4.324;2024-03-02T11:35:46;12.60;99.90
22436;DHT22;11385;50.822;4.324;2024-03-02T11:38:14;12.50;99.90
22436;DHT22;11385;50.822;4.324;2024-03-02T11:40:41;12.70;99.90
22436;DHT22;11385;50.822;4.324;2024-03-02T11:43:09;13.20;99.90
22436;DHT22;11385;50.822;4.324;2024-03-02T11:45:37;13.10;99.90
22436;DHT22;11385;50.822;4.324;2024-03-02T11:48:09;13.10;99.90
22436;DHT22;11385;50.822;4.324;2024-03-02T11:50:42;13.10;99.90
22436;DHT22;11385;50.822;4.324;2024-03-02T11:53:10;13.00;99.90
22436;DHT22;11385;50.822;4.324;2024-03-02T11:55:39;12.80;99.90
22436;DHT22;11385;50.822;4.324;2024-03-02T11:58:09;12.80;99.90
22436;DHT22;11385;50.822;4.324;2024-03-02T12:00:36;12.80;99.90
22436;DHT22;11385;50.822;4.324;2024-03-02T12:03:07;12.90;99.90
22436;DHT22;11385;50.822;4.324;2024-03-02T12:05:35;13.10;99.90
22436;DHT22;11385;50.822;4.324;2024-03-02T12:08:04;13.00;99.90
22436;DHT22;11385;50.822;4.324;2024-03-02T12:10:31;12.90;99.90
22436;DHT22;11385;50.822;4.324;2024-03-02T12:13:00;12.80;99.90
22436;DHT22;11385;50.822;4.324;2024-03-02T12:15:29;12.60;99.90
22436;DHT22;11385;50.822;4.324;2024-03-02T12:17:58;12.60;99.90
22436;DHT22;11385;50.822;4.324;2024-03-02T12:20:26;12.80;99.90
22436;DHT22;11385;50.822;4.324;2024-03-02T12:22:56;12.90;99.90
22436;DHT22;11385;50.822;4.324;2024-03-02T12:25:24;13.00;99.90
22436;DHT22;11385;50.822;4.324;2024-03-02T12:27:54;13.10;99.90
22436;DHT22;11385;50.822;4.324;2024-03-02T12:30:22;12.90;99.90
22436;DHT22;11385;50.822;4.324;2024-03-02T12:32:49;12.80;99.90
22436;DHT22;11385;50.822;4.324;2024-03-02T12:35:18;12.90;99.90
22436;DHT22;11385;50.822;4.324;2024-03-02T12:37:46;13.00;99.90
22436;DHT22;11385;50.822;4.324;2024-03-02T12:40:14;13.00;99.90
22436;DHT22;11385;50.822;4.324;2024-03-02T12:42:41;13.20;99.90
22436;DHT22;11385;50.822;4.324;2024-03-02T12:45:10;13.20;99.90
22436;DHT22;11385;50.822;4.324;2024-03-02T12:47:37;13.10;99.90
22436;DHT22;11385;50.822;4.324;2024-03-02T12:50:04;13.10;99.90
22436;DHT22;11385;50.822;4.324;2024-03-02T12:52:31;13.10;99.90
22436;DHT22;11385;50.822;4.324;2024-03-02T12:55:00;13.10;99.90
22436;DHT22;11385;50.822;4.324;2024-03-02T12:57:30;13.20;99.90
22436;DHT22;11385;50.822;4.324;2024-03-02T13:00:03;13.20;99.90
22436;DHT22;11385;50.822;4.324;2024-03-02T13:02:39;13.30;99.90
22436;DHT22;11385;50.822;4.324;2024-03-02T13:05:07;13.20;99.90
22436;DHT22;11385;50.822;4.324;2024-03-02T13:07:37;13.10;99.90
22436;DHT22;11385;50.822;4.324;2024-03-02T13:10:05;13.10;99.90
22436;DHT22;11385;50.822;4.324;2024-03-02T13:12:34;13.10;99.90
22436;DHT22;11385;50.822;4.324;2024-03-02T13:15:02;13.20;99.90
22436;DHT22;11385;50.822;4.324;2024-03-02T13:17:30;13.30;99.90
22436;DHT22;11385;50.822;4.324;2024-03-02T13:19:59;13.40;99.90
22436;DHT22;11385;50.822;4.324;2024-03-02T13:22:26;13.40;99.90
22436;DHT22;11385;50.822;4.324;2024-03-02T13:24:53;13.30;99.90
22436;DHT22;11385;50.822;4.324;2024-03-02T13:27:21;13.30;99.90
22436;DHT22;11385;50.822;4.324;2024-03-02T13:29:48;13.40;99.90
22436;DHT22;11385;50.822;4.324;2024-03-02T13:32:16;13.10;99.90
22436;DHT22;11385;50.822;4.324;2024-03-02T13:34:43;13.50;99.90
22436;DHT22;11385;50.822;4.324;2024-03-02T13:37:10;13.50;99.90
22436;DHT22;11385;50.822;4.324;2024-03-02T13:39:37;13.50;99.90
22436;DHT22;11385;50.822;4.324;2024-03-02T13:42:08;13.50;99.90
22436;DHT22;11385;50.822;4.324;2024-03-02T13:44:36;13.50;99.90
22436;DHT22;11385;50.822;4.324;2024-03-02T13:47:03;13.60;99.90
22436;DHT22;11385;50.822;4.324;2024-03-02T13:49:31;13.60;99.90
22436;DHT22;11385;50.822;4.324;2024-03-02T13:52:03;13.70;99.90
22436;DHT22;11385;50.822;4.324;2024-03-02T13:54:32;13.60;99.90
22436;DHT22;11385;50.822;4.324;2024-03-02T13:56:58;13.50;99.90
22436;DHT22;11385;50.822;4.324;2024-03-02T13:59:27;13.50;99.90
22436;DHT22;11385;50.822;4.324;2024-03-02T14:01:53;13.70;99.90
22436;DHT22;11385;50.822;4.324;2024-03-02T14:04:20;13.30;99.90
22436;DHT22;11385;50.822;4.324;2024-03-02T14:06:47;13.40;99.90
22436;DHT22;11385;50.822;4.324;2024-03-02T14:09:13;13.40;99.90
22436;DHT22;11385;50.822;4.324;2024-03-02T14:11:41;13.30;99.90
22436;DHT22;11385;50.822;4.324;2024-03-02T14:14:07;13.50;99.90
22436;DHT22;11385;50.822;4.324;2024-03-02T14:16:34;13.30;99.90
22436;DHT22;11385;50.822;4.324;2024-03-02T14:19:01;12.80;99.90
22436;DHT22;11385;50.822;4.324;2024-03-02T14:21:30;12.50;99.90
22436;DHT22;11385;50.822;4.324;2024-03-02T14:23:57;12.20;99.90
22436;DHT22;11385;50.822;4.324;2024-03-02T14:26:24;12.10;99.90
22436;DHT22;11385;50.822;4.324;2024-03-02T14:28:52;12.00;99.90
22436;DHT22;11385;50.822;4.324;2024-03-02T14:31:21;11.80;99.90
22436;DHT22;11385;50.822;4.324;2024-03-02T14:33:47;11.80;99.90
22436;DHT22;11385;50.822;4.324;2024-03-02T14:36:14;11.90;99.90
22436;DHT22;11385;50.822;4.324;2024-03-02T14:38:41;12.00;99.90
22436;DHT22;11385;50.822;4.324;2024-03-02T14:41:07;12.00;99.90
22436;DHT22;11385;50.822;4.324;2024-03-02T14:43:35;11.90;99.90
22436;DHT22;11385;50.822;4.324;2024-03-02T14:46:03;11.90;99.90
22436;DHT22;11385;50.822;4.324;2024-03-02T14:48:31;11.90;99.90
22436;DHT22;11385;50.822;4.324;2024-03-02T14:50:58;12.00;99.90
22436;DHT22;11385;50.822;4.324;2024-03-02T14:53:26;12.00;99.90
22436;DHT22;11385;50.822;4.324;2024-03-02T14:55:52;12.10;99.90
22436;DHT22;11385;50.822;4.324;2024-03-02T14:58:19;12.00;99.90
22436;DHT22;11385;50.822;4.324;2024-03-02T15:00:46;12.10;99.90
22436;DHT22;11385;50.822;4.324;2024-03-02T15:03:13;12.10;99.90
22436;DHT22;11385;50.822;4.324;2024-03-02T15:05:39;12.20;99.90
22436;DHT22;11385;50.822;4.324;2024-03-02T15:08:06;12.30;99.90
22436;DHT22;11385;50.822;4.324;2024-03-02T15:10:33;12.40;99.90
22436;DHT22;11385;50.822;4.324;2024-03-02T15:13:00;12.40;99.90
22436;DHT22;11385;50.822;4.324;2024-03-02T15:15:27;12.40;99.90
22436;DHT22;11385;50.822;4.324;2024-03-02T15:17:54;12.30;99.90
22436;DHT22;11385;50.822;4.324;2024-03-02T15:20:20;12.20;99.90
22436;DHT22;11385;50.822;4.324;2024-03-02T15:22:47;12.00;99.90
22436;DHT22;11385;50.822;4.324;2024-03-02T15:25:14;11.90;99.90
22436;DHT22;11385;50.822;4.324;2024-03-02T15:27:43;11.80;99.90
22436;DHT22;11385;50.822;4.324;2024-03-02T15:30:09;12.00;99.90
22436;DHT22;11385;50.822;4.324;2024-03-02T15:32:36;12.20;99.90
22436;DHT22;11385;50.822;4.324;2024-03-02T15:35:05;12.30;99.90
22436;DHT22;11385;50.822;4.324;2024-03-02T15:37:32;12.20;99.90
22436;DHT22;11385;50.822;4.324;2024-03-02T15:39:58;12.10;99.90
22436;DHT22;11385;50.822;4.324;2024-03-02T15:42:27;12.20;99.90
22436;DHT22;11385;50.822;4.324;2024-03-02T15:44:54;12.30;99.90
22436;DHT22;11385;50.822;4.324;2024-03-02T15:47:20;12.50;99.90
22436;DHT22;11385;50.822;4.324;2024-03-02T15:49:50;12.60;99.90
22436;DHT22;11385;50.822;4.324;2024-03-02T15:52:17;12.50;99.90